Time;durP1;ratioP1;P1;durP2;ratioP2;P2;SDS_P1;SDS_P2;PMS_P1;PMS_P2;Temp;Humidity;BMP_temperature;BMP_pressure;BME280_temperature;BME280_humidity;BME280_pressure;Samples;Min_cycle;Max_cycle;Signal;HPM_P1;HPM_P2
2022/02/15 00:00:35;;;;;;;2.80;0.80;;;;;;;1.82;100.00;92341.97;2090174;28;20029;-85
2022/02/15 00:01:37;;;;;;;2.67;1.08;;;;;;;1.96;100.00;92335.91;2098455;28;20020;-85
2022/02/15 00:02:37;;;;;;;6.32;0.88;;;;;;;1.90;100.00;92338.19;2098371;28;20033;-86
2022/02/15 00:03:38;;;;;;;4.20;1.20;;;;;;;1.94;100.00;92346.09;2090208;28;20017;-85
2022/02/15 00:04:39;;;;;;;5.32;1.15;;;;;;;1.86;100.00;92337.44;2098462;28;20430;-85
2022/02/15 00:05:40;;;;;;;5.50;0.90;;;;;;;1.87;100.00;92338.94;2106746;28;20460;-85
2022/02/15 00:06:41;;;;;;;1.45;0.77;;;;;;;2.06;100.00;92340.41;2106761;28;20028;-85
2022/02/15 00:07:42;;;;;;;5.43;1.13;;;;;;;2.05;100.00;92340.78;2097171;28;21034;-85
2022/02/15 00:08:44;;;;;;;5.40;1.25;;;;;;;2.03;100.00;92340.44;2081772;28;20025;-85
2022/02/15 00:09:46;;;;;;;4.10;1.08;;;;;;;1.96;100.00;92344.56;2081978;28;20132;-85
2022/02/15 00:10:47;;;;;;;2.70;1.20;;;;;;;1.87;100.00;92338.19;2089809;28;20049;-86
2022/02/15 00:11:48;;;;;;;2.58;1.10;;;;;;;1.83;100.00;92343.47;2090157;28;20378;-85
2022/02/15 00:12:49;;;;;;;5.00;0.88;;;;;;;1.79;100.00;92339.34;2098258;28;20075;-86
2022/02/15 00:13:50;;;;;;;3.25;0.93;;;;;;;1.78;100.00;92330.69;2090027;28;20469;-85
2022/02/15 00:14:51;;;;;;;4.72;1.00;;;;;;;1.74;100.00;92332.56;2098298;28;20052;-86
2022/02/15 00:15:52;;;;;;;3.25;1.08;;;;;;;1.72;100.00;92326.94;2106588;28;20108;-85
2022/02/15 00:16:53;;;;;;;1.95;0.90;;;;;;;1.94;100.00;92325.03;2089879;28;20029;-85
2022/02/15 00:17:54;;;;;;;3.25;0.93;;;;;;;1.82;100.00;92326.16;2090131;28;20024;-85
2022/02/15 00:18:55;;;;;;;5.20;0.98;;;;;;;1.94;100.00;92320.50;2090035;28;20025;-85
2022/02/15 00:19:56;;;;;;;4.72;1.10;;;;;;;1.92;100.00;92327.28;2089886;28;20021;-85
2022/02/15 00:20:57;;;;;;;6.70;1.10;;;;;;;1.81;100.00;92324.66;2081897;28;20026;-85
2022/02/15 00:21:57;;;;;;;4.82;1.13;;;;;;;1.87;100.00;92322.38;2081756;28;20033;-85
2022/02/15 00:22:58;;;;;;;5.10;0.90;;;;;;;1.97;100.00;92324.25;2095015;28;20028;-85
2022/02/15 00:23:59;;;;;;;3.55;1.00;;;;;;;1.89;100.00;92331.44;2106501;28;20051;-85
2022/02/15 00:25:01;;;;;;;2.25;0.80;;;;;;;1.79;100.00;92324.28;2106465;28;20024;-85
2022/02/15 00:26:03;;;;;;;5.32;0.95;;;;;;;1.78;100.00;92325.41;2091408;28;20017;-85
2022/02/15 00:27:04;;;;;;;6.70;0.90;;;;;;;1.75;100.00;92320.91;2098313;28;20036;-85
2022/02/15 00:28:05;;;;;;;5.28;1.17;;;;;;;1.73;100.00;92323.91;2098254;28;20032;-85
2022/02/15 00:29:06;;;;;;;5.82;1.15;;;;;;;1.71;100.00;92325.41;2081866;28;20051;-85
2022/02/15 00:30:09;;;;;;;3.88;0.98;;;;;;;1.66;100.00;92323.16;2081567;28;20098;-86
2022/02/15 00:31:10;;;;;;;3.00;1.25;;;;;;;1.63;100.00;92329.97;2090550;28;20444;-84
2022/02/15 00:32:11;;;;;;;6.10;1.45;;;;;;;1.59;100.00;92329.22;2098010;28;20029;-85
2022/02/15 00:33:12;;;;;;;3.38;1.20;;;;;;;1.69;100.00;92325.81;2089830;28;20020;-84
2022/02/15 00:34:12;;;;;;;3.35;1.10;;;;;;;1.64;100.00;92325.44;2089792;28;20039;-85
2022/02/15 00:35:14;;;;;;;3.22;1.52;;;;;;;1.61;100.00;92318.28;2097978;28;20056;-85
2022/02/15 00:36:15;;;;;;;3.42;1.40;;;;;;;1.55;100.00;92320.56;2098338;28;20055;-85
2022/02/15 00:37:16;;;;;;;6.60;1.48;;;;;;;1.50;100.00;92328.84;2098120;28;20032;-85
2022/02/15 00:38:17;;;;;;;3.00;1.63;;;;;;;1.49;100.00;92322.84;2098153;28;20098;-85
2022/02/15 00:39:19;;;;;;;3.80;1.13;;;;;;;1.47;100.00;92324.31;2097997;28;20028;-85
2022/02/15 00:40:19;;;;;;;4.18;1.13;;;;;;;1.43;100.00;92323.56;2098211;28;20027;-84
2022/02/15 00:41:20;;;;;;;3.83;1.20;;;;;;;1.42;100.00;92324.72;2106164;28;20106;-85
2022/02/15 00:42:21;;;;;;;2.47;0.90;;;;;;;1.38;100.00;92327.34;2098084;28;20032;-85
2022/02/15 00:43:22;;;;;;;3.53;1.08;;;;;;;1.39;100.00;92330.72;2106476;28;20480;-85
2022/02/15 00:44:26;;;;;;;4.90;1.20;;;;;;;1.35;100.00;92324.69;2106697;28;20032;-84
2022/02/15 00:45:27;;;;;;;3.33;1.02;;;;;;;1.35;100.00;92330.72;2106402;28;20573;-85
2022/02/15 00:46:28;;;;;;;3.97;0.88;;;;;;;1.34;100.00;92328.47;2097987;28;20048;-84
2022/02/15 00:47:29;;;;;;;3.45;1.08;;;;;;;1.39;100.00;92330.72;2089937;28;20100;-85
2022/02/15 00:48:30;;;;;;;2.72;1.00;;;;;;;1.39;100.00;92338.63;2106280;28;20044;-85
2022/02/15 00:49:31;;;;;;;5.05;0.98;;;;;;;1.36;100.00;92326.19;2098038;28;20031;-84
2022/02/15 00:50:42;;;;;;;3.40;1.10;;;;;;;1.38;100.00;92335.25;2089437;28;20021;-85
2022/02/15 00:51:43;;;;;;;3.00;1.08;;;;;;;1.34;100.00;92331.84;2091562;28;20072;-84
2022/02/15 00:52:44;;;;;;;2.58;0.93;;;;;;;1.40;100.00;92335.59;2097747;28;20020;-84
2022/02/15 00:53:45;;;;;;;3.97;1.02;;;;;;;1.45;100.00;92334.50;2106133;28;20058;-85
2022/02/15 00:54:46;;;;;;;3.83;0.80;;;;;;;1.42;100.00;92343.13;2098011;28;20094;-84
2022/02/15 00:55:47;;;;;;;4.00;1.10;;;;;;;1.74;100.00;92341.22;2097847;28;20031;-85
2022/02/15 00:56:48;;;;;;;3.20;0.88;;;;;;;1.58;100.00;92340.88;2089570;28;20036;-84
2022/02/15 00:57:49;;;;;;;2.40;0.90;;;;;;;1.82;100.00;92349.88;2081551;28;20519;-85
2022/02/15 00:58:50;;;;;;;4.40;0.90;;;;;;;1.66;100.00;92352.16;2089680;28;20148;-84
2022/02/15 00:59:51;;;;;;;3.85;0.85;;;;;;;1.65;100.00;92354.03;2089456;28;20025;-85
2022/02/15 01:00:52;;;;;;;3.40;0.80;;;;;;;1.77;100.00;92350.25;2081501;28;20471;-85
2022/02/15 01:01:53;;;;;;;3.25;0.57;;;;;;;1.64;100.00;92346.50;2081249;28;20044;-84
2022/02/15 01:02:54;;;;;;;4.13;1.00;;;;;;;1.55;100.00;92354.06;2081281;28;20621;-84
2022/02/15 01:03:55;;;;;;;7.22;1.52;;;;;;;1.55;100.00;92351.41;2094007;28;20016;-85
2022/02/15 01:04:56;;;;;;;4.57;1.48;;;;;;;1.51;100.00;92346.16;2097629;28;20023;-84
2022/02/15 01:05:59;;;;;;;3.05;0.85;;;;;;;1.46;100.00;92346.53;2081334;28;20123;-84
2022/02/15 01:07:00;;;;;;;3.83;0.80;;;;;;;1.53;100.00;92351.78;2090225;28;20017;-83
2022/02/15 01:08:01;;;;;;;4.57;0.88;;;;;;;1.43;100.00;92342.75;2097895;28;20028;-85
2022/02/15 01:09:10;;;;;;;5.72;0.98;;;;;;;1.57;100.00;92346.50;2097396;28;20020;-85
2022/02/15 01:10:16;;;;;;;6.13;0.80;;;;;;;1.47;100.00;92346.13;2083631;28;20028;-85
2022/02/15 01:11:21;;;;;;;4.72;0.70;;;;;;;1.40;100.00;92346.13;2089638;28;20502;-85
2022/02/15 01:12:23;;;;;;;3.25;1.13;;;;;;;1.43;100.00;92342.00;2098196;28;20043;-85
2022/02/15 01:13:24;;;;;;;2.47;0.80;;;;;;;1.61;100.00;92348.00;2097810;28;20025;-85
2022/02/15 01:14:26;;;;;;;2.90;0.88;;;;;;;1.69;100.00;92354.78;2097654;28;20024;-84
2022/02/15 01:15:27;;;;;;;2.90;0.63;;;;;;;1.62;100.00;92340.84;2097850;28;20020;-85
2022/02/15 01:16:28;;;;;;;3.00;0.60;;;;;;;1.66;100.00;92347.63;2097746;28;20020;-85
2022/02/15 01:17:29;;;;;;;2.88;0.90;;;;;;;1.61;100.00;92350.66;2097949;28;20079;-85
2022/02/15 01:18:30;;;;;;;4.25;0.90;;;;;;;1.57;100.00;92349.91;2106168;28;20052;-86
2022/02/15 01:19:31;;;;;;;1.45;0.55;;;;;;;1.56;100.00;92350.28;2089511;28;20032;-85
2022/02/15 01:20:32;;;;;;;1.67;0.60;;;;;;;1.50;100.00;92347.28;2089359;28;20033;-86
2022/02/15 01:21:33;;;;;;;3.42;2.08;;;;;;;1.46;100.00;92349.91;2086596;28;20509;-84
2022/02/15 01:22:34;;;;;;;2.22;0.60;;;;;;;1.43;100.00;92348.03;2087785;28;20067;-86
2022/02/15 01:23:35;;;;;;;6.30;0.88;;;;;;;1.45;100.00;92348.41;2105978;28;20490;-85
2022/02/15 01:24:36;;;;;;;2.88;0.85;;;;;;;1.39;100.00;92347.25;2114567;28;20027;-85
2022/02/15 01:25:37;;;;;;;2.47;0.70;;;;;;;1.35;100.00;92353.66;2114595;28;20032;-85
2022/02/15 01:26:38;;;;;;;1.48;0.60;;;;;;;1.35;100.00;92349.16;2114051;28;20027;-85
2022/02/15 01:27:39;;;;;;;3.03;1.00;;;;;;;1.35;100.00;92348.41;2105897;28;20020;-85
2022/02/15 01:28:40;;;;;;;2.50;0.65;;;;;;;1.41;100.00;92350.28;2114445;28;20051;-85
2022/02/15 01:29:41;;;;;;;2.20;0.50;;;;;;;1.37;100.00;92354.06;2106070;28;20100;-84
2022/02/15 01:30:42;;;;;;;2.17;0.80;;;;;;;1.35;100.00;92353.66;2099967;28;20028;-85
2022/02/15 01:31:43;;;;;;;2.85;0.77;;;;;;;1.30;100.00;92356.66;2089063;28;20031;-84
2022/02/15 01:32:44;;;;;;;2.47;0.77;;;;;;;1.31;100.00;92351.03;2081054;28;20119;-85
2022/02/15 01:33:45;;;;;;;1.88;0.95;;;;;;;1.31;100.00;92351.03;2089208;28;20024;-85
2022/02/15 01:34:46;;;;;;;4.13;1.10;;;;;;;1.32;100.00;92355.19;2081060;28;20021;-84
2022/02/15 01:35:47;;;;;;;3.13;1.38;;;;;;;1.29;100.00;92358.56;2089296;28;20025;-85
2022/02/15 01:36:49;;;;;;;3.85;1.20;;;;;;;1.42;100.00;92351.03;2089195;28;20107;-84
2022/02/15 01:37:50;;;;;;;2.20;1.30;;;;;;;1.55;100.00;92360.06;2089672;28;20461;-85
2022/02/15 01:38:51;;;;;;;2.42;1.10;;;;;;;1.82;100.00;92352.50;2089104;28;20037;-85
2022/02/15 01:39:52;;;;;;;6.63;1.55;;;;;;;1.78;100.00;92364.94;2090187;28;20024;-84
2022/02/15 01:40:53;;;;;;;3.97;1.50;;;;;;;1.75;100.00;92350.63;2097543;28;20739;-85
2022/02/15 01:41:55;;;;;;;3.60;1.38;;;;;;;1.70;100.00;92350.25;2089121;28;20142;-85
2022/02/15 01:42:56;;;;;;;4.38;1.73;;;;;;;1.77;100.00;92358.16;2081592;28;20021;-84
2022/02/15 01:43:57;;;;;;;3.47;1.10;;;;;;;1.71;100.00;92344.63;2097671;28;20095;-84
2022/02/15 01:44:58;;;;;;;2.40;1.33;;;;;;;1.76;100.00;92348.75;2097536;28;20032;-85
2022/02/15 01:45:59;;;;;;;1.52;1.10;;;;;;;1.74;100.00;92354.41;2081198;28;20466;-85
2022/02/15 01:47:00;;;;;;;3.08;1.40;;;;;;;1.77;100.00;92351.00;2089308;28;20494;-85
2022/02/15 01:48:01;;;;;;;2.40;1.67;;;;;;;1.83;100.00;92359.28;2089012;28;20128;-85
2022/02/15 01:49:03;;;;;;;1.65;1.42;;;;;;;1.98;100.00;92349.47;2097754;28;20044;-85
2022/02/15 01:50:04;;;;;;;3.00;1.48;;;;;;;2.07;100.00;92355.09;2105869;28;20210;-85
2022/02/15 01:51:06;;;;;;;3.13;1.52;;;;;;;1.99;100.00;92351.72;2097520;28;20516;-85
2022/02/15 01:52:07;;;;;;;4.47;1.60;;;;;;;1.91;100.00;92354.75;2097392;28;20036;-85
2022/02/15 01:53:08;;;;;;;3.65;1.40;;;;;;;1.81;100.00;92355.53;2090545;28;20418;-85
2022/02/15 01:54:08;;;;;;;4.93;1.55;;;;;;;1.76;100.00;92356.66;2097669;28;20021;-85
2022/02/15 01:55:13;;;;;;;5.28;1.80;;;;;;;1.69;100.00;92354.78;2105783;28;20043;-85
2022/02/15 01:56:14;;;;;;;3.72;1.40;;;;;;;1.70;100.00;92352.91;2106080;28;20422;-85
2022/02/15 01:57:17;;;;;;;3.97;1.90;;;;;;;1.67;100.00;92351.78;2097057;28;20453;-85
2022/02/15 01:58:17;;;;;;;4.82;2.17;;;;;;;1.67;100.00;92351.03;2089134;28;20144;-85
2022/02/15 01:59:18;;;;;;;1.85;1.42;;;;;;;1.61;100.00;92349.91;2100946;28;20031;-85
2022/02/15 02:00:20;;;;;;;2.95;1.65;;;;;;;1.62;100.00;92349.50;2097446;28;20063;-85
2022/02/15 02:01:22;;;;;;;3.33;1.50;;;;;;;1.53;100.00;92349.13;2089051;28;20032;-85
2022/02/15 02:02:25;;;;;;;3.75;1.50;;;;;;;1.55;100.00;92346.16;2089100;28;20378;-85
2022/02/15 02:03:27;;;;;;;2.92;1.45;;;;;;;1.53;100.00;92346.50;2089334;28;20025;-85
2022/02/15 02:05:50;;;;;;;2.67;1.38;;;;;;;1.52;100.00;92343.13;2098151;28;20028;-85
2022/02/15 02:06:51;;;;;;;1.80;1.60;;;;;;;1.56;100.00;92345.00;2097799;28;20024;-85
2022/02/15 02:07:54;;;;;;;2.20;2.00;;;;;;;1.59;100.00;92346.91;2105784;28;20082;-86
2022/02/15 02:08:55;;;;;;;3.38;1.70;;;;;;;1.58;100.00;92348.00;2105745;28;20481;-85
2022/02/15 02:11:15;;;;;;;;;;;;;;;1.62;100.00;92346.13;2148777;27;20114;-86
2022/02/15 02:12:16;;;;;;;3.85;2.53;;;;;;;1.56;100.00;92347.66;2129927;27;20312;-86
2022/02/15 02:13:18;;;;;;;5.80;2.40;;;;;;;1.56;100.00;92350.28;2130400;27;20023;-86
2022/02/15 02:14:19;;;;;;;4.20;2.70;;;;;;;1.56;100.00;92345.00;2130292;27;20064;-86
2022/02/15 02:15:22;;;;;;;4.70;2.72;;;;;;;1.52;100.00;92347.66;2130112;27;20084;-86
2022/02/15 02:16:31;;;;;;;4.63;3.15;;;;;;;1.49;100.00;92345.75;2121862;27;20057;-86
2022/02/15 02:17:33;;;;;;;6.70;3.80;;;;;;;1.46;100.00;92346.53;2124106;27;20030;-87
2022/02/15 02:18:33;;;;;;;4.30;3.88;;;;;;;1.42;100.00;92340.50;2121627;27;20023;-86
2022/02/15 02:19:34;;;;;;;7.28;3.83;;;;;;;1.38;100.00;92343.13;2121724;27;20098;-86
2022/02/15 02:20:35;;;;;;;7.00;5.18;;;;;;;1.44;100.00;92338.25;2130181;27;20023;-86
2022/02/15 02:21:38;;;;;;;6.93;5.65;;;;;;;1.43;100.00;92337.50;2129968;27;20023;-87
2022/02/15 02:22:40;;;;;;;9.93;6.55;;;;;;;1.40;100.00;92337.47;2125725;27;20074;-86
2022/02/15 02:23:41;;;;;;;8.90;6.53;;;;;;;1.43;100.00;92337.50;2113269;28;20468;-86
2022/02/15 02:24:42;;;;;;;7.25;6.13;;;;;;;1.43;100.00;92347.28;2112935;27;20886;-86
2022/02/15 02:25:43;;;;;;;8.52;5.97;;;;;;;1.40;100.00;92348.00;2113002;28;20089;-86
2022/02/15 02:26:45;;;;;;;8.13;6.60;;;;;;;1.42;100.00;92345.78;2113175;27;20080;-86
2022/02/15 02:27:47;;;;;;;8.10;6.20;;;;;;;1.44;100.00;92344.25;2113082;28;20098;-84
2022/02/15 02:28:48;;;;;;;9.57;6.70;;;;;;;1.51;100.00;92339.00;2104727;28;20089;-86
2022/02/15 02:29:53;;;;;;;8.98;6.97;;;;;;;1.44;100.00;92336.34;2113130;28;20031;-85
2022/02/15 02:30:54;;;;;;;8.40;6.75;;;;;;;1.48;100.00;92339.00;2121225;28;20016;-86
2022/02/15 02:31:55;;;;;;;8.02;6.75;;;;;;;1.43;100.00;92337.50;2121326;27;20098;-85
2022/02/15 02:32:56;;;;;;;8.15;6.40;;;;;;;1.35;100.00;92343.13;2121273;28;20575;-86
2022/02/15 02:33:59;;;;;;;9.00;6.72;;;;;;;1.39;100.00;92334.09;2119568;27;20141;-85
2022/02/15 02:35:01;;;;;;;8.45;7.15;;;;;;;1.31;100.00;92332.59;2121959;27;20043;-85
2022/02/15 02:36:02;;;;;;;9.95;6.97;;;;;;;1.34;100.00;92337.13;2114096;28;20061;-85
2022/02/15 02:37:03;;;;;;;10.85;8.00;;;;;;;1.35;100.00;92337.88;2104632;28;20046;-85
2022/02/15 02:38:04;;;;;;;10.30;7.03;;;;;;;1.35;100.00;92333.34;2112855;27;20023;-85
2022/02/15 02:39:05;;;;;;;10.43;7.57;;;;;;;1.47;100.00;92338.25;2112926;28;20054;-85
2022/02/15 02:40:10;;;;;;;9.98;7.13;;;;;;;1.60;100.00;92341.25;2104338;28;20493;-85
2022/02/15 02:41:12;;;;;;;10.98;7.50;;;;;;;1.50;100.00;92342.75;2113347;28;20020;-85
2022/02/15 02:42:15;;;;;;;9.05;7.07;;;;;;;1.44;100.00;92341.63;2121279;27;20377;-85
2022/02/15 02:43:16;;;;;;;9.18;6.70;;;;;;;1.47;100.00;92345.38;2118375;28;20020;-85
2022/02/15 02:44:17;;;;;;;8.73;7.22;;;;;;;1.52;100.00;92343.13;2113022;27;20023;-85
2022/02/15 02:45:21;;;;;;;10.57;7.15;;;;;;;1.39;100.00;92349.91;2112918;28;20049;-86
2022/02/15 02:46:22;;;;;;;10.23;8.32;;;;;;;1.45;100.00;92345.03;2113035;28;20114;-86
2022/02/15 02:47:25;;;;;;;13.20;8.73;;;;;;;1.41;100.00;92342.38;2104541;28;20020;-84
2022/02/15 02:48:26;;;;;;;14.27;9.48;;;;;;;1.41;100.00;92341.66;2105018;28;20028;-85
2022/02/15 02:49:27;;;;;;;13.15;10.23;;;;;;;1.45;100.00;92351.03;2104407;28;20028;-86
2022/02/15 02:50:29;;;;;;;12.82;9.90;;;;;;;1.39;100.00;92347.25;2112709;27;20448;-86
2022/02/15 02:51:30;;;;;;;12.73;10.60;;;;;;;1.38;100.00;92342.38;2121137;27;20034;-85
2022/02/15 02:52:31;;;;;;;14.95;11.65;;;;;;;1.39;100.00;92341.25;2121030;28;20023;-85
2022/02/15 02:53:32;;;;;;;14.13;11.13;;;;;;;1.38;100.00;92342.38;2104438;28;20020;-85
2022/02/15 02:54:33;;;;;;;15.82;11.75;;;;;;;1.26;100.00;92352.16;2121337;27;20073;-86
2022/02/15 02:55:34;;;;;;;16.05;11.63;;;;;;;1.26;100.00;92354.03;2129864;27;20394;-85
2022/02/15 02:56:35;;;;;;;16.60;11.80;;;;;;;1.33;100.00;92342.75;2112768;28;20062;-85
2022/02/15 02:57:37;;;;;;;17.00;12.40;;;;;;;1.19;100.00;92344.25;2104342;28;20146;-85
2022/02/15 02:58:38;;;;;;;15.43;11.05;;;;;;;1.13;100.00;92353.66;2121159;28;20169;-85
2022/02/15 02:59:40;;;;;;;14.73;11.05;;;;;;;1.09;100.00;92349.50;2113031;27;20024;-85
2022/02/15 03:00:41;;;;;;;16.45;11.07;;;;;;;1.18;100.00;92350.63;2117876;28;20024;-86
2022/02/15 03:01:42;;;;;;;15.38;11.02;;;;;;;1.19;100.00;92348.78;2104173;28;20024;-86
2022/02/15 03:02:43;;;;;;;15.20;11.55;;;;;;;1.16;100.00;92344.25;2112740;28;20031;-85
2022/02/15 03:03:44;;;;;;;17.50;12.02;;;;;;;1.17;100.00;92351.03;2112816;28;20058;-86
2022/02/15 03:04:45;;;;;;;16.52;11.13;;;;;;;1.12;100.00;92354.78;2112750;28;20115;-86
2022/02/15 03:05:46;;;;;;;14.13;10.60;;;;;;;1.13;100.00;92351.00;2113250;27;20028;-87
2022/02/15 03:06:48;;;;;;;14.30;10.48;;;;;;;1.14;100.00;92343.88;2112573;28;20514;-85
2022/02/15 03:07:49;;;;;;;17.08;11.88;;;;;;;1.20;100.00;92356.28;2104465;28;20754;-86
2022/02/15 03:08:49;;;;;;;16.75;11.90;;;;;;;1.12;100.00;92356.66;2112783;28;20074;-86
2022/02/15 03:09:50;;;;;;;18.02;11.55;;;;;;;1.18;100.00;92355.16;2112433;28;20026;-85
2022/02/15 03:10:51;;;;;;;15.15;12.05;;;;;;;1.13;100.00;92358.16;2104058;28;20041;-85
2022/02/15 03:11:52;;;;;;;17.00;11.27;;;;;;;1.04;100.00;92363.78;2104156;28;20058;-85
2022/02/15 03:12:53;;;;;;;15.70;11.63;;;;;;;1.03;100.00;92361.53;2104057;28;20025;-86
2022/02/15 03:13:54;;;;;;;17.60;11.50;;;;;;;1.00;100.00;92358.50;2104138;28;20381;-86
2022/02/15 03:14:55;;;;;;;15.35;10.80;;;;;;;1.03;100.00;92366.81;2104265;28;20024;-85
2022/02/15 03:15:56;;;;;;;15.65;10.85;;;;;;;0.99;100.00;92362.28;2095860;28;20106;-85
2022/02/15 03:16:57;;;;;;;15.80;11.23;;;;;;;0.94;100.00;92361.91;2104148;28;20399;-86
2022/02/15 03:17:58;;;;;;;15.63;10.82;;;;;;;0.98;100.00;92357.41;2120982;28;20027;-86
2022/02/15 03:19:00;;;;;;;15.98;11.48;;;;;;;1.20;100.00;92360.81;2112416;28;20023;-86
2022/02/15 03:20:01;;;;;;;14.57;10.45;;;;;;;1.20;100.00;92363.44;2129479;27;20407;-86
2022/02/15 03:21:02;;;;;;;13.63;10.35;;;;;;;1.09;100.00;92366.03;2112504;28;20075;-87
2022/02/15 03:22:03;;;;;;;15.07;11.00;;;;;;;1.05;100.00;92362.66;2101862;28;20611;-86
2022/02/15 03:23:04;;;;;;;15.63;11.13;;;;;;;0.96;100.00;92367.53;2090394;28;20025;-86
2022/02/15 03:24:05;;;;;;;15.80;11.00;;;;;;;0.95;100.00;92363.41;2090422;28;20036;-85
2022/02/15 03:25:06;;;;;;;14.65;10.13;;;;;;;1.02;100.00;92366.06;2106931;28;20020;-86
2022/02/15 03:26:07;;;;;;;14.48;10.70;;;;;;;1.06;100.00;92366.06;2107027;28;20447;-86
2022/02/15 03:27:08;;;;;;;16.20;10.82;;;;;;;1.34;100.00;92363.44;2090130;28;20025;-86
2022/02/15 03:28:09;;;;;;;14.70;10.35;;;;;;;1.30;100.00;92370.59;2106635;27;20020;-86
2022/02/15 03:29:13;;;;;;;13.93;10.20;;;;;;;1.25;100.00;92370.97;2106778;28;20447;-86
2022/02/15 03:30:14;;;;;;;14.32;10.38;;;;;;;1.19;100.00;92365.31;2099320;28;20115;-86
2022/02/15 03:31:15;;;;;;;15.93;9.52;;;;;;;1.41;100.00;92370.59;2097185;28;20095;-85
2022/02/15 03:32:16;;;;;;;13.52;9.90;;;;;;;1.25;100.00;92370.97;2105416;28;20520;-86
2022/02/15 03:33:17;;;;;;;16.88;9.82;;;;;;;1.44;100.00;92367.94;2090958;28;20036;-86
2022/02/15 03:34:18;;;;;;;12.48;9.05;;;;;;;1.22;100.00;92369.81;2105406;28;20023;-87
2022/02/15 03:35:19;;;;;;;11.93;8.95;;;;;;;1.28;100.00;92372.09;2105602;28;20130;-86
2022/02/15 03:36:21;;;;;;;15.95;9.68;;;;;;;1.29;100.00;92360.44;2104555;28;20095;-85
2022/02/15 03:37:22;;;;;;;11.68;9.15;;;;;;;1.32;100.00;92372.84;2097441;28;20024;-86
2022/02/15 03:38:23;;;;;;;13.48;9.50;;;;;;;1.30;100.00;92375.84;2098289;28;20074;-86
2022/02/15 03:39:24;;;;;;;13.38;9.70;;;;;;;1.19;100.00;92372.47;2098582;28;20033;-86
2022/02/15 03:43:04;;;;;;;13.85;9.35;;;;;;;1.21;100.00;92368.31;2089808;28;20044;-86
2022/02/15 03:43:08;;;;;;;11.73;7.78;;;;;;;1.27;100.00;92368.69;2108798;28;20028;-85
2022/02/15 03:44:09;;;;;;;11.63;8.88;;;;;;;1.21;100.00;92370.19;2106417;28;20074;-86
2022/02/15 03:45:10;;;;;;;11.50;9.00;;;;;;;1.29;100.00;92371.72;2098123;28;20103;-85
2022/02/15 03:46:11;;;;;;;10.93;8.75;;;;;;;1.19;100.00;92383.00;2106728;28;20020;-86
2022/02/15 03:47:12;;;;;;;13.77;9.57;;;;;;;1.21;100.00;92378.84;2106497;28;20071;-86
2022/02/15 03:48:13;;;;;;;12.00;8.85;;;;;;;1.17;100.00;92374.72;2106472;28;20066;-86
2022/02/15 03:49:14;;;;;;;11.05;8.20;;;;;;;1.12;100.00;92377.72;2098042;28;20025;-85
2022/02/15 03:50:15;;;;;;;11.30;9.48;;;;;;;1.20;100.00;92372.09;2105542;28;20106;-86
2022/02/15 03:51:16;;;;;;;24.30;16.73;;;;;;;1.19;100.00;92386.38;2098198;28;20110;-86
2022/02/15 03:52:17;;;;;;;22.05;15.23;;;;;;;1.14;100.00;92375.44;2098145;28;20100;-86
2022/02/15 03:53:18;;;;;;;25.33;15.68;;;;;;;1.13;100.00;92377.31;2090138;28;20115;-86
2022/02/15 03:54:19;;;;;;;23.08;15.90;;;;;;;1.14;100.00;92389.38;2098310;28;20020;-86
2022/02/15 03:55:20;;;;;;;18.55;12.63;;;;;;;1.12;100.00;92386.34;2098593;28;20028;-86
2022/02/15 03:56:21;;;;;;;18.27;12.10;;;;;;;1.23;100.00;92383.75;2112392;28;20106;-87
2022/02/15 03:57:22;;;;;;;14.55;10.77;;;;;;;1.22;100.00;92385.63;2106639;28;20039;-87
2022/02/15 03:58:23;;;;;;;14.07;9.18;;;;;;;1.20;100.00;92392.41;2098589;28;20425;-85
2022/02/15 03:59:24;;;;;;;9.63;7.88;;;;;;;1.17;100.00;92387.88;2106843;28;20036;-87
2022/02/15 04:00:25;;;;;;;10.18;8.25;;;;;;;1.20;100.00;92384.50;2106611;28;20020;-86
2022/02/15 04:01:27;;;;;;;11.57;8.27;;;;;;;1.17;100.00;92391.25;2106672;28;20016;-87
2022/02/15 04:02:29;;;;;;;12.88;8.50;;;;;;;1.18;100.00;92389.38;2114914;28;20023;-87
2022/02/15 04:03:30;;;;;;;10.65;8.02;;;;;;;1.19;100.00;92389.00;2106632;28;20023;-87
2022/02/15 04:04:32;;;;;;;11.98;7.55;;;;;;;1.19;100.00;92388.25;2098324;28;20629;-87
2022/02/15 04:05:32;;;;;;;11.20;7.35;;;;;;;1.15;100.00;92387.50;2106655;28;20495;-86
2022/02/15 04:06:33;;;;;;;9.57;7.97;;;;;;;1.13;100.00;92393.13;2098248;28;20036;-86
2022/02/15 04:07:35;;;;;;;9.93;7.20;;;;;;;1.13;100.00;92393.13;2098499;28;20024;-86
2022/02/15 04:08:36;;;;;;;8.85;5.82;;;;;;;1.26;100.00;92393.53;2098351;28;20084;-86
2022/02/15 04:09:37;;;;;;;8.30;6.35;;;;;;;1.33;100.00;92396.16;2098563;28;20025;-86
2022/02/15 04:10:38;;;;;;;7.90;5.60;;;;;;;1.26;100.00;92391.63;2097916;28;20044;-87
2022/02/15 04:11:39;;;;;;;8.15;5.47;;;;;;;1.25;100.00;92400.66;2089708;28;20134;-86
2022/02/15 04:12:40;;;;;;;6.82;5.90;;;;;;;1.20;100.00;92402.91;2088670;28;20044;-85
2022/02/15 04:13:41;;;;;;;7.90;5.88;;;;;;;1.21;100.00;92394.63;2090181;28;20036;-87
2022/02/15 04:14:42;;;;;;;11.00;6.65;;;;;;;1.21;100.00;92399.91;2090094;28;20021;-86
2022/02/15 04:15:44;;;;;;;7.38;5.88;;;;;;;1.35;100.00;92399.16;2098217;28;20463;-85
2022/02/15 04:16:45;;;;;;;9.45;6.60;;;;;;;1.33;100.00;92400.69;2106783;28;20027;-85
2022/02/15 04:17:47;;;;;;;9.70;6.88;;;;;;;1.29;100.00;92405.94;2106410;28;20081;-85
2022/02/15 04:18:48;;;;;;;9.13;6.43;;;;;;;1.24;100.00;92403.69;2098433;28;20107;-85
2022/02/15 04:19:49;;;;;;;8.80;7.25;;;;;;;1.16;100.00;92399.53;2098311;28;20031;-85
2022/02/15 04:20:50;;;;;;;10.30;7.47;;;;;;;1.13;100.00;92402.91;2106192;28;21135;-86
2022/02/15 04:21:52;;;;;;;10.73;7.22;;;;;;;1.22;100.00;92406.66;2106386;28;20020;-85
2022/02/15 04:22:53;;;;;;;9.95;6.72;;;;;;;1.25;100.00;92405.19;2098270;28;20630;-85
2022/02/15 04:23:54;;;;;;;10.02;7.65;;;;;;;1.25;100.00;92410.44;2106279;28;20058;-85
2022/02/15 04:24:55;;;;;;;10.05;6.97;;;;;;;1.38;100.00;92408.97;2098238;28;20021;-85
2022/02/15 04:25:56;;;;;;;11.77;8.05;;;;;;;1.35;100.00;92419.47;2106360;28;20465;-85
2022/02/15 04:26:57;;;;;;;9.70;7.90;;;;;;;1.44;100.00;92415.34;2106425;28;20538;-85
2022/02/15 04:27:58;;;;;;;11.38;8.57;;;;;;;1.43;100.00;92416.47;2097961;28;20695;-84
2022/02/15 04:28:58;;;;;;;14.63;9.40;;;;;;;1.50;100.00;92413.13;2098229;28;20027;-86
2022/02/15 04:30:00;;;;;;;12.27;9.15;;;;;;;1.55;100.00;92418.00;2102203;28;20121;-85
2022/02/15 04:31:01;;;;;;;14.77;10.05;;;;;;;1.38;100.00;92421.38;2097724;28;20028;-85
2022/02/15 04:32:03;;;;;;;12.43;9.57;;;;;;;1.21;100.00;92415.69;2089928;28;20021;-86
2022/02/15 04:33:04;;;;;;;15.38;10.45;;;;;;;1.32;100.00;92409.69;2081722;28;20040;-86
2022/02/15 04:34:05;;;;;;;13.70;10.38;;;;;;;1.37;100.00;92417.25;2080733;28;20029;-85
2022/02/15 04:35:07;;;;;;;17.27;11.13;;;;;;;1.58;100.00;92424.38;2081549;28;20437;-84
2022/02/15 04:36:08;;;;;;;14.15;10.55;;;;;;;1.42;100.00;92420.25;2081756;28;20118;-85
2022/02/15 04:37:09;;;;;;;18.50;13.27;;;;;;;1.30;100.00;92422.47;2081406;28;20060;-85
2022/02/15 04:38:09;;;;;;;20.45;15.70;;;;;;;1.34;100.00;92418.72;2082608;28;20032;-85
2022/02/15 04:39:12;;;;;;;19.95;14.90;;;;;;;1.28;100.00;92416.84;2083327;28;20029;-85
2022/02/15 04:40:13;;;;;;;16.13;12.80;;;;;;;1.23;100.00;92424.00;2090330;28;20020;-85
2022/02/15 04:41:14;;;;;;;17.92;13.82;;;;;;;1.13;100.00;92423.94;2097953;28;20017;-85
2022/02/15 04:42:16;;;;;;;16.65;12.13;;;;;;;1.04;100.00;92432.19;2106199;28;20116;-85
2022/02/15 04:43:17;;;;;;;16.02;13.23;;;;;;;1.06;100.00;92424.69;2106330;28;20031;-86
2022/02/15 04:44:18;;;;;;;18.52;12.20;;;;;;;1.19;100.00;92425.84;2097891;28;20434;-84
2022/02/15 04:45:19;;;;;;;17.80;11.88;;;;;;;1.08;100.00;92422.44;2097907;28;20031;-85
2022/02/15 04:46:20;;;;;;;15.52;11.40;;;;;;;1.26;100.00;92433.00;2106341;28;20102;-85
2022/02/15 04:47:21;;;;;;;16.90;10.75;;;;;;;1.25;100.00;92428.88;2097912;28;20029;-85
2022/02/15 04:48:22;;;;;;;15.27;11.00;;;;;;;1.27;100.00;92426.59;2089629;28;20021;-85
2022/02/15 04:49:23;;;;;;;16.15;11.02;;;;;;;1.18;100.00;92434.84;2089778;28;20083;-85
2022/02/15 04:50:24;;;;;;;14.85;10.30;;;;;;;1.21;100.00;92430.75;2089465;28;20405;-83
2022/02/15 04:51:26;;;;;;;14.13;10.50;;;;;;;1.16;100.00;92431.88;2097755;28;20103;-84